Airfield :
LOGIN :

Register | Disclaimer

   EN    FR    IT 

 










Legend :    VFR   Marginal VFR   IFR   Intensive IFR   Very Intensive IFR
Visi :
Ceiling :
>= 8 km
>= 3000ft
5 to 8 km
1000 to 3000 ft
1500m to 5 km
500 to 1000 ft
800 to 1500m
200 to 500 ft
< 800m
< 200 ft
Symbols :   Thunderstorms  Fog  Heavy snow  Heavy precipitations  Wind > 20 kt
SIGMETs :     Misc.  Thunderstorms  Icing  Turbulence  Mountain Waves  Volcanic Ashes







- Airport Elevation : 38 ft
- IATA code : TRE
- Download approach charts


EGPU - Tiree

CURRENT METAR :
  • 240450Z AUTO 26006KT 240V320 9999 SCT036/// SCT046/// 02/01 Q1004 RERA

EXPIRED METARs :
  • 240420Z AUTO 33005KT 290V010 8000 -RA BKN023/// 02/01 Q1003
  • 240350Z AUTO 34011KT 310V010 9999 UP SCT023/// 03/01 Q1003
  • 240320Z AUTO 27010KT 9999 NCD 02/01 Q1003
  • 240250Z AUTO 27004KT 240V300 9999 FEW026/// 02/00 Q1003
  • 240220Z AUTO 28004KT 9999 FEW022/// 01/M00 Q1003

TAF TAF EGPU
Valid from the 24 at 06:00 until the 24 at 15:00 UTC


240459Z 2406/2415 29007KT 9999 SCT030
TEMPO 2406/2415 28020G30KT 6000 SHRA
PROB30
TEMPO 2406/2415 3000 SHRASN +TSRAGS BKN008
No reported NOTAMs for that airfield.



MET'MAP, your aeronautical weather chart ! - Copyright ORBIFLY December 2007 - Disclaimer

ORBIFLY MET'MAP TEAM :

Programming & Development : Alexandra Zaïnal
Concept & Development : Baudouin d'Aumeries
Co-Development & Prog : Marc-Olivier Méhu
Technical & hardware support : Manuel Goepfert

Contact : metmap@orbifly.com




SOURCES & CREDITS :

   NOAA